createdAt,value
2022-09-20T00:00:43.830Z,1.30
2022-09-20T00:03:11.499Z,1.20
2022-09-20T00:05:39.744Z,1.20
2022-09-20T00:08:08.916Z,1.20
2022-09-20T00:10:39.274Z,1.63
2022-09-20T00:13:07.457Z,1.30
2022-09-20T00:15:34.677Z,1.63
2022-09-20T00:18:01.802Z,1.10
2022-09-20T00:20:28.918Z,1.30
2022-09-20T00:22:56.097Z,1.20
2022-09-20T00:25:23.224Z,1.30
2022-09-20T00:27:50.354Z,1.38
2022-09-20T00:30:17.583Z,1.42
2022-09-20T00:32:44.701Z,1.52
2022-09-20T00:35:11.836Z,1.40
2022-09-20T00:37:40.406Z,1.20
2022-09-20T00:40:16.226Z,1.60
2022-09-20T00:42:43.437Z,1.40
2022-09-20T00:45:18.974Z,1.30
2022-09-20T00:47:58.102Z,1.30
2022-09-20T00:50:41.246Z,1.38
2022-09-20T00:53:14.404Z,1.30
2022-09-20T00:55:45.544Z,1.40
2022-09-20T00:58:13.053Z,1.20
2022-09-20T01:00:40.193Z,1.58
2022-09-20T01:03:08.645Z,1.83
2022-09-20T01:05:35.837Z,1.30
2022-09-20T01:08:03.115Z,1.23
2022-09-20T01:10:31.585Z,1.23
2022-09-20T01:12:59.114Z,1.10
2022-09-20T01:15:27.721Z,1.25
2022-09-20T01:23:45.957Z,1.20
2022-09-20T01:26:41.056Z,1.20
2022-09-20T01:30:09.710Z,1.13
2022-09-20T01:32:56.168Z,1.40
2022-09-20T01:35:24.121Z,1.10
2022-09-20T01:38:10.906Z,1.25
2022-09-20T01:41:08.886Z,1.00
2022-09-20T01:43:38.881Z,1.33
2022-09-20T01:46:32.949Z,1.27
2022-09-20T01:49:24.860Z,1.50
2022-09-20T01:52:29.537Z,1.50
2022-09-20T01:55:11.708Z,1.52
2022-09-20T01:57:58.885Z,1.40
2022-09-20T02:00:27.229Z,1.20
2022-09-20T02:03:12.937Z,1.60
2022-09-20T02:06:23.217Z,1.40
2022-09-20T02:09:13.094Z,1.15
2022-09-20T02:12:06.022Z,1.27
2022-09-20T02:14:58.373Z,1.50
2022-09-20T02:17:57.769Z,1.38
2022-09-20T02:23:49.196Z,1.67
2022-09-20T02:26:34.975Z,1.10
2022-09-20T02:29:10.216Z,1.60
2022-09-20T02:31:50.716Z,1.40
2022-09-20T02:34:39.233Z,1.58
2022-09-20T02:37:18.594Z,1.50
2022-09-20T02:39:48.128Z,1.30
2022-09-20T02:42:24.402Z,1.50
2022-09-20T02:45:03.685Z,1.58
2022-09-20T02:47:41.365Z,1.42
2022-09-20T02:50:26.581Z,1.20
2022-09-20T02:53:27.697Z,1.30
2022-09-20T02:56:06.810Z,1.48
2022-09-20T02:58:36.418Z,1.50
2022-09-20T03:01:31.125Z,1.60
2022-09-20T03:04:10.255Z,1.50
2022-09-20T03:06:40.468Z,1.60
2022-09-20T03:09:30.205Z,1.73
2022-09-20T03:12:33.208Z,1.60
2022-09-20T03:15:40.490Z,1.60
2022-09-20T03:18:14.867Z,1.75
2022-09-20T03:26:53.489Z,1.65
2022-09-20T03:33:11.261Z,1.60
2022-09-20T03:36:04.960Z,1.70
2022-09-20T03:38:51.400Z,1.77
2022-09-20T03:41:27.498Z,1.70
2022-09-20T03:43:54.566Z,1.73
2022-09-20T03:46:48.786Z,1.73
2022-09-20T03:49:24.958Z,1.90
2022-09-20T03:52:22.118Z,1.98
2022-09-20T03:54:49.826Z,1.55
2022-09-20T03:57:38.960Z,1.88
2022-09-20T04:00:20.714Z,1.60
2022-09-20T04:03:18.945Z,1.75
2022-09-20T04:06:17.667Z,1.95
2022-09-20T04:08:53.683Z,2.10
2022-09-20T04:11:25.036Z,1.90
2022-09-20T04:13:59.788Z,1.90
2022-09-20T04:16:53.874Z,1.70
2022-09-20T04:19:26.837Z,1.95
2022-09-20T04:22:00.650Z,1.85
2022-09-20T04:24:40.112Z,1.83
2022-09-20T04:27:22.842Z,1.83
2022-09-20T04:30:05.297Z,1.80
2022-09-20T04:32:36.573Z,1.95
2022-09-20T04:35:44.252Z,1.88
2022-09-20T04:38:14.791Z,1.83
2022-09-20T04:41:01.316Z,1.70
2022-09-20T04:43:53.633Z,2.10
2022-09-20T04:46:45.286Z,2.05
2022-09-20T04:49:50.396Z,1.80
2022-09-20T04:52:23.584Z,1.38
2022-09-20T04:55:07.189Z,2.08
2022-09-20T04:58:02.006Z,1.83
2022-09-20T05:00:55.876Z,2.10
2022-09-20T05:03:41.188Z,2.05
2022-09-20T05:06:20.274Z,2.13
2022-09-20T05:09:21.223Z,2.15
2022-09-20T05:12:10.146Z,2.10
2022-09-20T05:14:41.670Z,2.00
2022-09-20T05:17:34.356Z,1.75
2022-09-20T05:20:14.124Z,2.03
2022-09-20T05:23:13.627Z,2.28
2022-09-20T05:26:19.624Z,2.30
2022-09-20T05:28:53.284Z,2.13
2022-09-20T05:31:34.321Z,2.03
2022-09-20T05:34:19.430Z,2.40
2022-09-20T05:37:00.930Z,2.10
2022-09-20T05:39:38.686Z,2.00
2022-09-20T05:42:40.370Z,2.45
2022-09-20T05:45:29.026Z,2.08
2022-09-20T05:48:39.468Z,2.47
2022-09-20T05:51:20.085Z,2.47
2022-09-20T05:54:08.021Z,2.20
2022-09-20T05:56:59.323Z,2.55
2022-09-20T05:59:54.570Z,2.50
2022-09-20T06:02:38.233Z,2.70
2022-09-20T06:05:19.554Z,2.40
2022-09-20T06:07:57.611Z,2.60
2022-09-20T06:11:18.616Z,2.50
2022-09-20T06:14:09.321Z,2.85
2022-09-20T06:16:53.958Z,2.58
2022-09-20T06:19:42.459Z,2.65
2022-09-20T06:22:35.648Z,2.15
2022-09-20T06:25:08.887Z,2.38
2022-09-20T06:28:14.640Z,2.58
2022-09-20T06:30:45.039Z,2.72
2022-09-20T06:33:17.040Z,2.35
2022-09-20T06:35:44.118Z,2.15
2022-09-20T06:38:37.741Z,3.10
2022-09-20T06:41:23.420Z,2.60
2022-09-20T06:43:50.730Z,2.40
2022-09-20T06:46:18.002Z,2.35
2022-09-20T06:48:45.160Z,2.88
2022-09-20T06:51:12.464Z,2.30
2022-09-20T06:53:40.243Z,2.60
2022-09-20T06:56:15.109Z,2.47
2022-09-20T06:58:42.287Z,2.60
2022-09-20T07:01:09.510Z,2.83
2022-09-20T07:03:37.845Z,2.65
2022-09-20T07:06:05.167Z,2.63
2022-09-20T07:08:32.296Z,2.60
2022-09-20T07:11:04.348Z,2.65
2022-09-20T07:13:31.608Z,3.10
2022-09-20T07:16:06.260Z,2.90
2022-09-20T07:18:33.518Z,2.60
2022-09-20T07:21:01.129Z,2.92
2022-09-20T07:23:29.698Z,2.35
2022-09-20T07:26:00.988Z,2.40
2022-09-20T07:28:28.726Z,3.08
2022-09-20T07:30:55.896Z,2.60
2022-09-20T07:33:24.946Z,2.92
2022-09-20T07:35:54.392Z,2.35
2022-09-20T07:38:22.475Z,3.08
2022-09-20T07:41:00.550Z,2.90
2022-09-20T07:43:29.100Z,2.40
2022-09-20T07:45:56.494Z,3.20
2022-09-20T07:48:28.797Z,2.85
2022-09-20T07:51:17.787Z,3.28
2022-09-20T07:53:45.046Z,2.95
2022-09-20T07:56:18.476Z,3.10
2022-09-20T07:58:50.015Z,3.77
2022-09-20T08:01:21.006Z,3.50
2022-09-20T08:04:16.474Z,3.83
2022-09-20T08:09:26.501Z,3.40
2022-09-20T08:11:54.193Z,4.07
2022-09-20T08:17:30.549Z,4.55
2022-09-20T08:19:59.479Z,4.30
2022-09-20T08:22:37.539Z,4.40
2022-09-20T08:25:06.021Z,5.20
2022-09-20T09:44:27.878Z,5.13
2022-09-20T09:46:56.607Z,5.22
2022-09-20T09:49:29.352Z,5.32
2022-09-20T09:52:06.161Z,3.95
2022-09-20T09:54:38.448Z,4.10
2022-09-20T09:57:10.904Z,3.80
2022-09-20T10:00:05.996Z,3.42
2022-09-20T10:03:07.053Z,3.38
2022-09-20T10:05:47.838Z,3.80
2022-09-20T10:09:10.963Z,4.10
2022-09-20T10:12:03.445Z,3.47
2022-09-20T10:14:49.419Z,3.38
2022-09-20T10:17:31.892Z,3.30
2022-09-20T10:20:22.642Z,3.33
2022-09-20T10:23:58.620Z,3.33
2022-09-20T10:26:44.142Z,3.00
2022-09-20T10:30:10.385Z,3.10
2022-09-20T10:32:39.333Z,2.67
2022-09-20T10:35:23.911Z,2.50
2022-09-20T10:41:27.902Z,2.70
2022-09-20T10:44:05.046Z,2.40
2022-09-20T10:46:56.028Z,2.60
2022-09-20T10:49:43.610Z,2.60
2022-09-20T10:52:17.483Z,2.97
2022-09-20T10:55:35.157Z,2.60
2022-09-20T10:58:29.555Z,2.63
2022-09-20T11:01:07.054Z,2.50
2022-09-20T11:03:48.967Z,2.78
2022-09-20T11:06:21.500Z,2.38
2022-09-20T11:08:54.172Z,3.05
2022-09-20T11:11:34.739Z,2.40
2022-09-20T11:14:13.345Z,2.58
2022-09-20T11:16:46.238Z,2.60
2022-09-20T11:19:34.749Z,2.40
2022-09-20T11:22:19.667Z,2.38
2022-09-20T11:24:50.920Z,2.30
2022-09-20T11:27:19.292Z,2.72
2022-09-20T11:30:18.713Z,2.00
2022-09-20T11:32:55.125Z,2.05
2022-09-20T11:35:37.753Z,1.88
2022-09-20T11:38:50.936Z,2.20
2022-09-20T11:41:27.021Z,1.90
2022-09-20T11:44:14.431Z,1.95
2022-09-20T11:46:54.014Z,1.70
2022-09-20T11:49:31.178Z,1.58
2022-09-20T11:52:17.454Z,1.95
2022-09-20T11:54:55.768Z,1.95
2022-09-20T11:57:23.309Z,1.70
2022-09-20T11:59:54.031Z,1.80
2022-09-20T12:02:42.498Z,1.80
2022-09-20T12:05:39.573Z,1.65
2022-09-20T12:08:33.997Z,1.90
2022-09-20T12:11:14.642Z,2.00
2022-09-20T12:13:43.339Z,1.75
2022-09-20T12:16:16.631Z,2.00
2022-09-20T12:19:02.665Z,2.23
2022-09-20T12:21:32.638Z,2.15
2022-09-20T12:24:02.192Z,2.38
2022-09-20T12:26:40.237Z,2.28
2022-09-20T12:29:34.206Z,1.73
2022-09-20T12:32:05.452Z,1.88
2022-09-20T12:34:35.202Z,1.45
2022-09-20T12:37:05.055Z,2.33
2022-09-20T12:39:34.676Z,1.90
2022-09-20T12:42:07.868Z,1.90
2022-09-20T12:44:36.533Z,1.35
2022-09-20T12:47:10.716Z,1.98
2022-09-20T12:52:50.392Z,1.55
2022-09-20T12:55:32.882Z,1.90
2022-09-20T12:58:03.231Z,2.17
2022-09-20T13:00:39.484Z,2.20
2022-09-20T13:03:18.499Z,1.75
2022-09-20T13:05:46.683Z,1.90
2022-09-20T13:08:27.900Z,1.90
2022-09-20T13:11:40.959Z,1.70
2022-09-20T13:14:08.179Z,1.60
2022-09-20T13:16:55.610Z,1.77
2022-09-20T13:19:25.917Z,1.98
2022-09-20T13:21:58.394Z,1.73
2022-09-20T13:24:29.896Z,1.60
2022-09-20T13:27:01.837Z,1.77
2022-09-20T13:29:39.458Z,1.70
2022-09-20T13:32:26.221Z,1.80
2022-09-20T13:35:16.774Z,1.60
2022-09-20T13:38:02.015Z,1.70
2022-09-20T13:40:39.569Z,1.85
2022-09-20T13:43:37.135Z,1.75
2022-09-20T13:46:09.766Z,1.92
2022-09-20T13:48:37.112Z,1.88
2022-09-20T13:51:18.190Z,1.48
2022-09-20T13:53:46.799Z,1.80
2022-09-20T13:56:25.833Z,1.90
2022-09-20T13:58:53.203Z,1.40
2022-09-20T14:01:29.992Z,1.40
2022-09-20T14:04:14.752Z,2.17
2022-09-20T14:06:42.598Z,1.70
2022-09-20T14:09:19.795Z,1.90
2022-09-20T14:11:47.258Z,1.70
2022-09-20T14:14:40.709Z,1.73
2022-09-20T14:17:09.575Z,1.90
2022-09-20T14:19:40.797Z,1.70
2022-09-20T14:22:08.166Z,1.77
2022-09-20T14:24:37.145Z,1.58
2022-09-20T14:27:19.071Z,1.70
2022-09-20T14:29:50.583Z,1.48
2022-09-20T14:32:17.914Z,1.80
2022-09-20T14:35:11.711Z,1.60
2022-09-20T14:37:47.105Z,1.88
2022-09-20T14:40:26.454Z,1.35
2022-09-20T14:42:55.738Z,1.80
2022-09-20T14:45:30.262Z,1.30
2022-09-20T14:48:11.650Z,1.70
2022-09-20T14:50:46.333Z,1.80
2022-09-20T14:53:26.727Z,1.90
2022-09-20T14:56:04.996Z,1.27
2022-09-20T14:58:33.520Z,1.67
2022-09-20T15:01:05.827Z,1.90
2022-09-20T15:03:41.458Z,1.60
2022-09-20T15:06:11.144Z,1.58
2022-09-20T15:08:40.755Z,1.77
2022-09-20T15:11:18.649Z,2.88
2022-09-20T15:13:46.016Z,1.98
2022-09-20T15:16:13.867Z,2.47
2022-09-20T15:18:42.493Z,1.83
2022-09-20T15:21:11.423Z,1.67
2022-09-20T15:23:39.376Z,1.90
2022-09-20T15:26:07.359Z,2.05
2022-09-20T15:28:35.263Z,1.60
2022-09-20T15:31:04.137Z,1.58
2022-09-20T15:33:32.195Z,1.60
2022-09-20T15:36:01.151Z,1.60
2022-09-20T15:38:28.522Z,1.52
2022-09-20T15:40:55.785Z,1.60
2022-09-20T15:43:28.122Z,2.08
2022-09-20T15:46:02.572Z,2.05
2022-09-20T15:48:30.437Z,1.80
2022-09-20T15:51:08.569Z,1.83
2022-09-20T15:53:40.762Z,1.83
2022-09-20T15:56:19.475Z,1.85
2022-09-20T15:59:16.471Z,1.77
2022-09-20T16:01:44.654Z,1.60
2022-09-20T16:04:19.425Z,1.30
2022-09-20T16:06:49.425Z,1.63
2022-09-20T16:09:18.125Z,1.77
2022-09-20T16:11:48.723Z,1.60
2022-09-20T16:14:16.067Z,1.27
2022-09-20T16:16:43.498Z,1.65
2022-09-20T16:19:23.826Z,1.45
2022-09-20T16:21:58.264Z,1.38
2022-09-20T16:24:28.623Z,1.90
2022-09-20T16:26:56.246Z,1.73
2022-09-20T16:29:25.028Z,1.60
2022-09-20T16:31:53.434Z,1.40
2022-09-20T16:34:22.171Z,1.42
2022-09-20T16:37:16.655Z,1.50
2022-09-20T16:39:44.295Z,1.60
2022-09-20T16:42:13.767Z,1.80
2022-09-20T16:44:42.666Z,1.67
2022-09-20T16:47:18.186Z,1.42
2022-09-20T16:49:48.429Z,1.70
2022-09-20T16:52:40.615Z,1.60
2022-09-20T16:55:08.892Z,1.60
2022-09-20T16:58:04.594Z,1.50
2022-09-20T17:00:33.037Z,1.45
2022-09-20T17:03:00.428Z,1.70
2022-09-20T17:05:28.073Z,1.20
2022-09-20T17:08:22.940Z,1.10
2022-09-20T17:13:44.643Z,1.55
2022-09-20T17:16:13.562Z,1.40
2022-09-20T17:18:42.747Z,1.67
2022-09-20T17:21:16.840Z,1.60
2022-09-20T17:23:50.935Z,1.52
2022-09-20T17:26:31.436Z,1.70
2022-09-20T17:28:59.076Z,1.38
2022-09-20T17:31:57.123Z,1.55
2022-09-20T17:34:28.078Z,1.60
2022-09-20T17:36:55.601Z,1.80
2022-09-20T17:39:23.115Z,1.58
2022-09-20T17:41:51.111Z,1.60
2022-09-20T17:44:19.159Z,2.00
2022-09-20T17:46:48.234Z,1.60
2022-09-20T17:49:20.090Z,1.70
2022-09-20T17:51:51.935Z,1.70
2022-09-20T17:54:27.315Z,1.50
2022-09-20T17:56:56.006Z,1.60
2022-09-20T17:59:24.513Z,1.70
2022-09-20T18:02:19.806Z,1.50
2022-09-20T18:04:47.029Z,1.90
2022-09-20T18:07:14.212Z,1.83
2022-09-20T18:10:44.438Z,1.90
2022-09-20T18:13:12.624Z,1.75
2022-09-20T18:16:10.927Z,2.00
2022-09-20T18:18:39.694Z,1.67
2022-09-20T18:24:23.700Z,1.73
2022-09-20T18:26:51.440Z,1.80
2022-09-20T18:29:19.030Z,1.95
2022-09-20T18:32:11.021Z,1.77
2022-09-20T18:34:38.420Z,1.92
2022-09-20T18:37:09.086Z,2.08
2022-09-20T18:40:29.676Z,1.73
2022-09-20T18:43:27.295Z,1.90
2022-09-20T18:45:54.701Z,2.00
2022-09-20T18:48:24.584Z,2.00
2022-09-20T18:54:49.293Z,1.75
2022-09-20T18:57:16.759Z,2.00
2022-09-20T19:04:07.317Z,2.20
2022-09-20T19:07:36.996Z,2.13
2022-09-20T19:10:15.061Z,2.28
2022-09-20T19:13:22.700Z,2.40
2022-09-20T19:16:04.423Z,1.88
2022-09-20T19:19:13.159Z,2.45
2022-09-20T19:21:58.708Z,2.00
2022-09-20T19:24:44.813Z,1.95
2022-09-20T19:27:12.687Z,1.95
2022-09-20T19:29:40.323Z,1.98
2022-09-20T19:32:24.089Z,1.90
2022-09-20T19:34:52.417Z,1.90
2022-09-20T19:37:58.374Z,1.77
2022-09-20T19:41:08.747Z,1.63
2022-09-20T19:44:18.238Z,1.75
2022-09-20T19:47:26.290Z,1.80
2022-09-20T19:49:55.330Z,1.88
2022-09-20T19:52:23.756Z,1.60
2022-09-20T19:55:21.596Z,2.30
2022-09-20T19:57:49.094Z,2.05
2022-09-20T20:00:18.425Z,2.28
2022-09-20T20:02:50.164Z,2.25
2022-09-20T20:05:19.092Z,2.20
2022-09-20T20:08:18.992Z,2.42
2022-09-20T20:10:58.019Z,2.65
2022-09-20T20:17:41.472Z,2.67
2022-09-20T20:25:16.127Z,3.53
2022-09-20T20:27:43.374Z,3.40
2022-09-20T20:30:11.125Z,3.42
2022-09-20T20:33:05.057Z,3.13
2022-09-20T20:35:32.452Z,3.60
2022-09-20T20:37:59.687Z,3.50
2022-09-20T20:44:47.062Z,3.17
2022-09-20T20:47:14.246Z,3.67
2022-09-20T20:54:01.078Z,2.88
2022-09-20T20:56:29.794Z,3.22
2022-09-20T20:59:00.808Z,3.40
2022-09-20T21:01:38.457Z,3.40
2022-09-20T21:04:07.823Z,3.30
2022-09-20T21:06:36.126Z,3.08
2022-09-20T21:09:04.739Z,3.30
2022-09-20T21:11:33.947Z,3.15
2022-09-20T21:14:02.035Z,3.60
2022-09-20T21:16:30.692Z,3.40
2022-09-20T21:18:58.011Z,3.85
2022-09-20T21:21:30.971Z,3.50
2022-09-20T21:23:59.957Z,3.85
2022-09-20T21:26:28.290Z,3.75
2022-09-20T21:29:00.156Z,3.38
2022-09-20T21:31:28.776Z,3.10
2022-09-20T21:33:56.265Z,3.25
2022-09-20T21:36:24.976Z,3.00
2022-09-20T21:38:52.292Z,3.20
2022-09-20T21:41:22.037Z,3.10
2022-09-20T21:43:53.785Z,3.15
2022-09-20T21:46:29.193Z,2.72
2022-09-20T21:48:57.352Z,2.72
2022-09-20T21:51:25.271Z,3.03
2022-09-20T21:53:54.252Z,2.97
2022-09-20T21:56:21.461Z,3.35
2022-09-20T21:58:48.646Z,3.05
2022-09-20T22:01:17.672Z,2.65
2022-09-20T22:03:46.580Z,2.88
2022-09-20T22:06:18.229Z,2.72
2022-09-20T22:09:05.624Z,2.95
2022-09-20T22:11:40.968Z,3.33
2022-09-20T22:14:08.692Z,3.72
2022-09-20T22:16:37.869Z,2.97
2022-09-20T22:19:05.816Z,3.00
2022-09-20T22:21:37.604Z,3.45
2022-09-20T22:24:06.759Z,3.17
2022-09-20T22:26:38.558Z,3.08
2022-09-20T22:29:06.528Z,3.42
2022-09-20T22:35:24.024Z,3.22
2022-09-20T22:38:43.154Z,2.85
2022-09-20T22:41:10.723Z,3.58
2022-09-20T22:43:37.982Z,3.03
2022-09-20T22:46:59.217Z,2.97
2022-09-20T22:49:31.741Z,3.20
2022-09-20T22:51:58.934Z,3.10
2022-09-20T22:54:26.293Z,3.10
2022-09-20T22:57:06.792Z,3.20
2022-09-20T22:59:34.137Z,2.90
2022-09-20T23:02:01.784Z,3.15
2022-09-20T23:08:48.628Z,3.05
2022-09-20T23:12:16.273Z,2.97
2022-09-20T23:14:44.087Z,2.85
2022-09-20T23:17:11.237Z,2.70
2022-09-20T23:19:42.688Z,2.97
2022-09-20T23:22:09.867Z,2.63
2022-09-20T23:24:37.060Z,2.95
2022-09-20T23:27:04.524Z,2.83
2022-09-20T23:29:32.560Z,2.80
2022-09-20T23:31:59.817Z,2.97
2022-09-20T23:34:55.019Z,2.80
2022-09-20T23:37:22.199Z,2.95
2022-09-20T23:39:49.429Z,3.45
2022-09-20T23:43:00.891Z,3.00
2022-09-20T23:46:22.138Z,3.15
2022-09-20T23:48:50.476Z,3.20
2022-09-20T23:51:22.524Z,3.72
2022-09-20T23:54:50.169Z,3.75
2022-09-20T23:57:17.912Z,3.53
2022-09-20T23:59:45.109Z,3.45
